sensor_id;sensor_type;location;lat;lon;timestamp;pressure;altitude;pressure_sealevel;temperature;humidity
76858;BME280;65830;0.000;0.000;2024-03-02T00:01:22;99423.13;;;8.12;100.00
76858;BME280;65830;0.000;0.000;2024-03-02T00:03:47;99430.81;;;8.15;100.00
76858;BME280;65830;0.000;0.000;2024-03-02T00:06:13;99431.56;;;8.27;100.00
76858;BME280;65830;0.000;0.000;2024-03-02T00:08:39;99423.72;;;8.37;100.00
76858;BME280;65830;0.000;0.000;2024-03-02T00:11:04;99427.53;;;8.44;100.00
76858;BME280;65830;0.000;0.000;2024-03-02T00:13:30;99426.88;;;8.51;100.00
76858;BME280;65830;0.000;0.000;2024-03-02T00:15:57;99420.28;;;8.46;100.00
76858;BME280;65830;0.000;0.000;2024-03-02T00:18:27;99423.50;;;8.28;100.00
76858;BME280;65830;0.000;0.000;2024-03-02T00:20:55;99422.72;;;8.38;100.00
76858;BME280;65830;0.000;0.000;2024-03-02T00:23:22;99426.94;;;8.19;100.00
76858;BME280;65830;0.000;0.000;2024-03-02T00:25:57;99418.34;;;8.06;100.00
76858;BME280;65830;0.000;0.000;2024-03-02T00:28:23;99422.47;;;7.99;100.00
76858;BME280;65830;0.000;0.000;2024-03-02T00:30:56;99418.16;;;7.98;100.00
76858;BME280;65830;0.000;0.000;2024-03-02T00:33:22;99425.00;;;8.21;100.00
76858;BME280;65830;0.000;0.000;2024-03-02T00:35:49;99415.53;;;7.98;100.00
76858;BME280;65830;0.000;0.000;2024-03-02T00:38:15;99418.03;;;7.99;100.00
76858;BME280;65830;0.000;0.000;2024-03-02T00:40:41;99418.53;;;8.14;100.00
76858;BME280;65830;0.000;0.000;2024-03-02T00:43:10;99406.56;;;8.10;100.00
76858;BME280;65830;0.000;0.000;2024-03-02T00:45:43;99403.25;;;7.96;100.00
76858;BME280;65830;0.000;0.000;2024-03-02T00:48:09;99402.31;;;7.98;100.00
76858;BME280;65830;0.000;0.000;2024-03-02T00:50:34;99399.28;;;8.02;100.00
76858;BME280;65830;0.000;0.000;2024-03-02T00:53:01;99398.44;;;8.02;100.00
76858;BME280;65830;0.000;0.000;2024-03-02T00:55:27;99401.00;;;7.92;100.00
76858;BME280;65830;0.000;0.000;2024-03-02T00:57:52;99393.69;;;7.95;100.00
76858;BME280;65830;0.000;0.000;2024-03-02T01:00:18;99391.03;;;7.95;100.00
76858;BME280;65830;0.000;0.000;2024-03-02T01:02:43;99386.41;;;8.09;100.00
76858;BME280;65830;0.000;0.000;2024-03-02T01:05:10;99378.06;;;8.13;100.00
76858;BME280;65830;0.000;0.000;2024-03-02T01:07:37;99377.94;;;8.15;100.00
76858;BME280;65830;0.000;0.000;2024-03-02T01:10:03;99380.59;;;8.15;100.00
76858;BME280;65830;0.000;0.000;2024-03-02T01:12:28;99378.38;;;8.20;100.00
76858;BME280;65830;0.000;0.000;2024-03-02T01:14:54;99372.00;;;8.23;100.00
76858;BME280;65830;0.000;0.000;2024-03-02T01:17:19;99372.91;;;8.12;100.00
76858;BME280;65830;0.000;0.000;2024-03-02T01:19:45;99374.59;;;8.13;100.00
76858;BME280;65830;0.000;0.000;2024-03-02T01:22:10;99367.19;;;8.07;100.00
76858;BME280;65830;0.000;0.000;2024-03-02T01:24:36;99372.84;;;8.02;100.00
76858;BME280;65830;0.000;0.000;2024-03-02T01:27:01;99374.47;;;7.93;100.00
76858;BME280;65830;0.000;0.000;2024-03-02T01:29:27;99371.44;;;8.19;100.00
76858;BME280;65830;0.000;0.000;2024-03-02T01:31:53;99368.50;;;8.22;100.00
76858;BME280;65830;0.000;0.000;2024-03-02T01:34:19;99367.50;;;7.92;100.00
76858;BME280;65830;0.000;0.000;2024-03-02T01:36:44;99365.75;;;8.24;100.00
76858;BME280;65830;0.000;0.000;2024-03-02T01:39:09;99378.31;;;8.31;100.00
76858;BME280;65830;0.000;0.000;2024-03-02T01:41:35;99374.38;;;8.47;100.00
76858;BME280;65830;0.000;0.000;2024-03-02T01:44:01;99368.25;;;8.25;100.00
76858;BME280;65830;0.000;0.000;2024-03-02T01:46:26;99370.72;;;8.17;100.00
76858;BME280;65830;0.000;0.000;2024-03-02T01:48:52;99359.13;;;8.08;100.00
76858;BME280;65830;0.000;0.000;2024-03-02T01:51:17;99355.72;;;7.96;100.00
76858;BME280;65830;0.000;0.000;2024-03-02T01:53:43;99367.38;;;8.15;100.00
76858;BME280;65830;0.000;0.000;2024-03-02T01:56:08;99369.22;;;8.45;100.00
76858;BME280;65830;0.000;0.000;2024-03-02T01:58:34;99371.50;;;8.29;100.00
76858;BME280;65830;0.000;0.000;2024-03-02T02:00:59;99370.97;;;8.35;100.00
76858;BME280;65830;0.000;0.000;2024-03-02T02:03:25;99362.63;;;8.40;100.00
76858;BME280;65830;0.000;0.000;2024-03-02T02:05:50;99365.53;;;8.37;100.00
76858;BME280;65830;0.000;0.000;2024-03-02T02:08:16;99362.41;;;8.22;100.00
76858;BME280;65830;0.000;0.000;2024-03-02T02:10:42;99364.63;;;8.26;100.00
76858;BME280;65830;0.000;0.000;2024-03-02T02:13:07;99357.56;;;8.27;100.00
76858;BME280;65830;0.000;0.000;2024-03-02T02:15:33;99352.97;;;8.29;100.00
76858;BME280;65830;0.000;0.000;2024-03-02T02:18:01;99360.75;;;8.21;100.00
76858;BME280;65830;0.000;0.000;2024-03-02T02:20:27;99357.63;;;8.15;100.00
76858;BME280;65830;0.000;0.000;2024-03-02T02:23:02;99361.09;;;8.37;100.00
76858;BME280;65830;0.000;0.000;2024-03-02T02:25:28;99351.22;;;8.39;100.00
76858;BME280;65830;0.000;0.000;2024-03-02T02:27:54;99350.91;;;8.32;100.00
76858;BME280;65830;0.000;0.000;2024-03-02T02:30:26;99351.63;;;8.34;100.00
76858;BME280;65830;0.000;0.000;2024-03-02T02:32:52;99351.88;;;8.52;100.00
76858;BME280;65830;0.000;0.000;2024-03-02T02:35:18;99356.13;;;8.44;100.00
76858;BME280;65830;0.000;0.000;2024-03-02T02:37:44;99353.47;;;8.44;100.00
76858;BME280;65830;0.000;0.000;2024-03-02T02:40:11;99346.53;;;8.22;100.00
76858;BME280;65830;0.000;0.000;2024-03-02T02:42:37;99349.53;;;8.07;100.00
76858;BME280;65830;0.000;0.000;2024-03-02T02:45:02;99340.50;;;8.10;100.00
76858;BME280;65830;0.000;0.000;2024-03-02T02:47:28;99347.53;;;8.30;100.00
76858;BME280;65830;0.000;0.000;2024-03-02T02:49:54;99338.00;;;8.39;100.00
76858;BME280;65830;0.000;0.000;2024-03-02T02:52:20;99346.84;;;8.28;100.00
76858;BME280;65830;0.000;0.000;2024-03-02T02:54:46;99344.19;;;8.28;100.00
76858;BME280;65830;0.000;0.000;2024-03-02T02:57:12;99351.88;;;8.31;100.00
76858;BME280;65830;0.000;0.000;2024-03-02T02:59:37;99354.81;;;8.07;100.00
76858;BME280;65830;0.000;0.000;2024-03-02T03:02:03;99347.06;;;8.15;100.00
76858;BME280;65830;0.000;0.000;2024-03-02T03:04:28;99347.31;;;8.12;100.00
76858;BME280;65830;0.000;0.000;2024-03-02T03:06:54;99352.75;;;8.11;100.00
76858;BME280;65830;0.000;0.000;2024-03-02T03:09:19;99350.41;;;8.18;100.00
76858;BME280;65830;0.000;0.000;2024-03-02T03:11:45;99346.81;;;8.19;100.00
76858;BME280;65830;0.000;0.000;2024-03-02T03:14:10;99351.16;;;8.29;100.00
76858;BME280;65830;0.000;0.000;2024-03-02T03:16:36;99346.34;;;8.34;100.00
76858;BME280;65830;0.000;0.000;2024-03-02T03:19:01;99354.06;;;8.26;100.00
76858;BME280;65830;0.000;0.000;2024-03-02T03:21:27;99345.91;;;8.08;100.00
76858;BME280;65830;0.000;0.000;2024-03-02T03:23:52;99352.50;;;7.93;100.00
76858;BME280;65830;0.000;0.000;2024-03-02T03:26:18;99350.13;;;8.11;100.00
76858;BME280;65830;0.000;0.000;2024-03-02T03:28:43;99339.72;;;8.19;100.00
76858;BME280;65830;0.000;0.000;2024-03-02T03:31:09;99341.03;;;8.04;100.00
76858;BME280;65830;0.000;0.000;2024-03-02T03:33:35;99331.16;;;8.06;100.00
76858;BME280;65830;0.000;0.000;2024-03-02T03:36:01;99338.06;;;7.97;100.00
76858;BME280;65830;0.000;0.000;2024-03-02T03:38:28;99330.28;;;7.95;100.00
76858;BME280;65830;0.000;0.000;2024-03-02T03:40:54;99339.06;;;8.27;100.00
76858;BME280;65830;0.000;0.000;2024-03-02T03:43:20;99340.91;;;7.84;100.00
76858;BME280;65830;0.000;0.000;2024-03-02T03:45:46;99337.38;;;7.95;100.00
76858;BME280;65830;0.000;0.000;2024-03-02T03:48:11;99340.72;;;7.76;100.00
76858;BME280;65830;0.000;0.000;2024-03-02T03:50:37;99335.13;;;7.69;100.00
76858;BME280;65830;0.000;0.000;2024-03-02T03:53:03;99334.59;;;7.75;100.00
76858;BME280;65830;0.000;0.000;2024-03-02T03:55:29;99334.06;;;8.03;100.00
76858;BME280;65830;0.000;0.000;2024-03-02T03:57:54;99337.84;;;8.10;100.00
76858;BME280;65830;0.000;0.000;2024-03-02T04:00:20;99333.78;;;8.27;100.00
76858;BME280;65830;0.000;0.000;2024-03-02T04:02:45;99332.41;;;8.32;100.00
76858;BME280;65830;0.000;0.000;2024-03-02T04:05:11;99335.44;;;8.28;100.00
76858;BME280;65830;0.000;0.000;2024-03-02T04:07:36;99343.00;;;8.32;100.00
76858;BME280;65830;0.000;0.000;2024-03-02T04:10:09;99344.13;;;8.09;100.00
76858;BME280;65830;0.000;0.000;2024-03-02T04:12:35;99352.06;;;8.09;100.00
76858;BME280;65830;0.000;0.000;2024-03-02T04:15:02;99349.00;;;8.13;100.00
76858;BME280;65830;0.000;0.000;2024-03-02T04:17:29;99350.34;;;8.29;100.00
76858;BME280;65830;0.000;0.000;2024-03-02T04:19:54;99353.47;;;8.13;100.00
76858;BME280;65830;0.000;0.000;2024-03-02T04:22:20;99350.34;;;8.08;100.00
76858;BME280;65830;0.000;0.000;2024-03-02T04:24:45;99358.88;;;8.11;100.00
76858;BME280;65830;0.000;0.000;2024-03-02T04:27:11;99353.31;;;8.14;100.00
76858;BME280;65830;0.000;0.000;2024-03-02T04:29:36;99349.34;;;8.30;100.00
76858;BME280;65830;0.000;0.000;2024-03-02T04:32:02;99352.31;;;8.37;100.00
76858;BME280;65830;0.000;0.000;2024-03-02T04:34:27;99352.53;;;8.45;100.00
76858;BME280;65830;0.000;0.000;2024-03-02T04:36:53;99350.72;;;8.45;100.00
76858;BME280;65830;0.000;0.000;2024-03-02T04:39:18;99351.34;;;8.38;100.00
76858;BME280;65830;0.000;0.000;2024-03-02T04:41:44;99354.53;;;8.31;100.00
76858;BME280;65830;0.000;0.000;2024-03-02T04:44:10;99350.91;;;8.32;100.00
76858;BME280;65830;0.000;0.000;2024-03-02T04:46:35;99345.63;;;8.32;100.00
76858;BME280;65830;0.000;0.000;2024-03-02T04:49:01;99339.44;;;8.43;100.00
76858;BME280;65830;0.000;0.000;2024-03-02T04:51:26;99339.59;;;8.21;100.00
76858;BME280;65830;0.000;0.000;2024-03-02T04:53:52;99343.78;;;8.23;100.00
76858;BME280;65830;0.000;0.000;2024-03-02T04:56:17;99347.47;;;8.11;100.00
76858;BME280;65830;0.000;0.000;2024-03-02T04:59:05;99354.22;;;8.04;100.00
76858;BME280;65830;0.000;0.000;2024-03-02T05:01:31;99351.91;;;8.10;100.00
76858;BME280;65830;0.000;0.000;2024-03-02T05:03:57;99351.59;;;8.04;100.00
76858;BME280;65830;0.000;0.000;2024-03-02T05:06:22;99350.19;;;8.00;100.00
76858;BME280;65830;0.000;0.000;2024-03-02T05:08:49;99353.72;;;8.10;100.00
76858;BME280;65830;0.000;0.000;2024-03-02T05:11:14;99356.88;;;8.04;100.00
76858;BME280;65830;0.000;0.000;2024-03-02T05:13:58;99363.38;;;8.00;100.00
76858;BME280;65830;0.000;0.000;2024-03-02T05:16:24;99369.19;;;7.93;100.00
76858;BME280;65830;0.000;0.000;2024-03-02T05:18:49;99360.16;;;7.96;100.00
76858;BME280;65830;0.000;0.000;2024-03-02T05:21:15;99361.84;;;7.97;100.00
76858;BME280;65830;0.000;0.000;2024-03-02T05:23:40;99364.34;;;7.99;100.00
76858;BME280;65830;0.000;0.000;2024-03-02T05:26:06;99372.47;;;8.07;100.00
76858;BME280;65830;0.000;0.000;2024-03-02T05:28:32;99368.44;;;8.03;100.00
76858;BME280;65830;0.000;0.000;2024-03-02T05:30:57;99369.88;;;8.16;100.00
76858;BME280;65830;0.000;0.000;2024-03-02T05:33:23;99376.53;;;8.11;100.00
76858;BME280;65830;0.000;0.000;2024-03-02T05:35:48;99374.06;;;8.19;100.00
76858;BME280;65830;0.000;0.000;2024-03-02T05:38:15;99380.56;;;8.36;100.00
76858;BME280;65830;0.000;0.000;2024-03-02T05:40:40;99380.25;;;8.29;100.00
76858;BME280;65830;0.000;0.000;2024-03-02T05:43:06;99384.38;;;8.22;100.00
76858;BME280;65830;0.000;0.000;2024-03-02T05:45:31;99379.94;;;8.23;100.00
76858;BME280;65830;0.000;0.000;2024-03-02T05:47:57;99375.25;;;8.05;100.00
76858;BME280;65830;0.000;0.000;2024-03-02T05:50:23;99385.22;;;8.02;100.00
76858;BME280;65830;0.000;0.000;2024-03-02T05:52:49;99378.84;;;8.04;100.00
76858;BME280;65830;0.000;0.000;2024-03-02T05:55:14;99386.31;;;8.20;100.00
76858;BME280;65830;0.000;0.000;2024-03-02T05:57:40;99386.69;;;7.94;100.00
76858;BME280;65830;0.000;0.000;2024-03-02T06:00:08;99378.13;;;8.02;100.00
76858;BME280;65830;0.000;0.000;2024-03-02T06:02:41;99384.53;;;8.00;100.00
76858;BME280;65830;0.000;0.000;2024-03-02T06:05:06;99379.25;;;8.00;100.00
76858;BME280;65830;0.000;0.000;2024-03-02T06:07:32;99386.19;;;8.01;100.00
76858;BME280;65830;0.000;0.000;2024-03-02T06:09:58;99377.19;;;8.03;100.00
76858;BME280;65830;0.000;0.000;2024-03-02T06:12:24;99375.06;;;7.97;100.00
76858;BME280;65830;0.000;0.000;2024-03-02T06:14:49;99372.03;;;8.02;100.00
76858;BME280;65830;0.000;0.000;2024-03-02T06:17:16;99378.06;;;7.92;100.00
76858;BME280;65830;0.000;0.000;2024-03-02T06:19:44;99377.16;;;7.82;100.00
76858;BME280;65830;0.000;0.000;2024-03-02T06:22:10;99389.94;;;8.19;100.00
76858;BME280;65830;0.000;0.000;2024-03-02T06:24:36;99390.69;;;8.31;100.00
76858;BME280;65830;0.000;0.000;2024-03-02T06:27:01;99386.47;;;8.19;100.00
76858;BME280;65830;0.000;0.000;2024-03-02T06:29:27;99390.50;;;8.23;100.00
76858;BME280;65830;0.000;0.000;2024-03-02T06:31:52;99395.91;;;8.00;100.00
76858;BME280;65830;0.000;0.000;2024-03-02T06:34:18;99386.78;;;8.04;100.00
76858;BME280;65830;0.000;0.000;2024-03-02T06:36:43;99395.03;;;8.11;100.00
76858;BME280;65830;0.000;0.000;2024-03-02T06:39:09;99389.28;;;8.06;100.00
76858;BME280;65830;0.000;0.000;2024-03-02T06:41:35;99380.91;;;8.01;100.00
76858;BME280;65830;0.000;0.000;2024-03-02T06:44:01;99394.75;;;8.14;100.00
76858;BME280;65830;0.000;0.000;2024-03-02T06:46:26;99393.88;;;8.04;100.00
76858;BME280;65830;0.000;0.000;2024-03-02T06:48:52;99404.88;;;8.30;100.00
76858;BME280;65830;0.000;0.000;2024-03-02T06:51:17;99405.31;;;8.14;100.00
76858;BME280;65830;0.000;0.000;2024-03-02T06:53:43;99415.84;;;8.25;100.00
76858;BME280;65830;0.000;0.000;2024-03-02T06:56:08;99414.78;;;8.38;100.00
76858;BME280;65830;0.000;0.000;2024-03-02T06:58:34;99418.41;;;8.37;100.00
76858;BME280;65830;0.000;0.000;2024-03-02T07:01:00;99416.72;;;8.35;100.00
76858;BME280;65830;0.000;0.000;2024-03-02T07:03:28;99412.75;;;8.41;100.00
76858;BME280;65830;0.000;0.000;2024-03-02T07:05:54;99412.28;;;8.57;100.00
76858;BME280;65830;0.000;0.000;2024-03-02T07:08:19;99413.38;;;8.33;100.00
76858;BME280;65830;0.000;0.000;2024-03-02T07:10:45;99414.41;;;8.42;100.00
76858;BME280;65830;0.000;0.000;2024-03-02T07:13:10;99404.38;;;8.15;100.00
76858;BME280;65830;0.000;0.000;2024-03-02T07:15:35;99389.72;;;8.32;100.00
76858;BME280;65830;0.000;0.000;2024-03-02T07:18:30;99386.78;;;8.04;100.00
76858;BME280;65830;0.000;0.000;2024-03-02T07:20:56;99396.09;;;8.29;100.00
76858;BME280;65830;0.000;0.000;2024-03-02T07:23:24;99397.59;;;8.43;100.00
76858;BME280;65830;0.000;0.000;2024-03-02T07:25:55;99408.88;;;8.45;100.00
76858;BME280;65830;0.000;0.000;2024-03-02T07:28:22;99407.69;;;8.59;100.00
76858;BME280;65830;0.000;0.000;2024-03-02T07:30:57;99414.97;;;8.67;100.00
76858;BME280;65830;0.000;0.000;2024-03-02T07:33:24;99421.09;;;8.67;100.00
76858;BME280;65830;0.000;0.000;2024-03-02T07:35:49;99418.25;;;8.80;100.00
76858;BME280;65830;0.000;0.000;2024-03-02T07:38:15;99420.47;;;8.85;100.00
76858;BME280;65830;0.000;0.000;2024-03-02T07:40:40;99415.59;;;8.80;100.00
76858;BME280;65830;0.000;0.000;2024-03-02T07:43:06;99420.72;;;8.82;100.00
76858;BME280;65830;0.000;0.000;2024-03-02T07:45:31;99419.03;;;8.71;100.00
76858;BME280;65830;0.000;0.000;2024-03-02T07:47:57;99415.09;;;8.65;100.00
76858;BME280;65830;0.000;0.000;2024-03-02T07:50:23;99420.38;;;8.65;100.00
76858;BME280;65830;0.000;0.000;2024-03-02T07:52:48;99418.28;;;8.59;100.00
76858;BME280;65830;0.000;0.000;2024-03-02T07:55:14;99417.41;;;8.49;100.00
76858;BME280;65830;0.000;0.000;2024-03-02T07:57:40;99409.19;;;8.52;100.00
76858;BME280;65830;0.000;0.000;2024-03-02T08:00:05;99421.16;;;8.46;100.00
76858;BME280;65830;0.000;0.000;2024-03-02T08:02:37;99439.78;;;8.45;100.00
76858;BME280;65830;0.000;0.000;2024-03-02T08:05:03;99433.63;;;8.65;100.00
76858;BME280;65830;0.000;0.000;2024-03-02T08:07:28;99434.22;;;8.48;100.00
76858;BME280;65830;0.000;0.000;2024-03-02T08:09:54;99441.66;;;8.64;100.00
76858;BME280;65830;0.000;0.000;2024-03-02T08:12:19;99428.94;;;8.79;100.00
76858;BME280;65830;0.000;0.000;2024-03-02T08:14:47;99441.72;;;8.73;100.00
76858;BME280;65830;0.000;0.000;2024-03-02T08:17:12;99425.81;;;8.64;100.00
76858;BME280;65830;0.000;0.000;2024-03-02T08:19:38;99431.56;;;8.48;100.00
76858;BME280;65830;0.000;0.000;2024-03-02T08:22:03;99432.34;;;8.39;100.00
76858;BME280;65830;0.000;0.000;2024-03-02T08:24:29;99428.84;;;8.38;100.00
76858;BME280;65830;0.000;0.000;2024-03-02T08:26:54;99418.06;;;8.41;100.00
76858;BME280;65830;0.000;0.000;2024-03-02T08:29:20;99412.00;;;8.60;100.00
76858;BME280;65830;0.000;0.000;2024-03-02T08:31:45;99422.44;;;8.62;100.00
76858;BME280;65830;0.000;0.000;2024-03-02T08:34:11;99431.38;;;8.61;100.00
76858;BME280;65830;0.000;0.000;2024-03-02T08:36:36;99433.56;;;8.55;100.00
76858;BME280;65830;0.000;0.000;2024-03-02T08:39:03;99425.44;;;8.68;100.00
76858;BME280;65830;0.000;0.000;2024-03-02T08:41:32;99433.00;;;8.83;100.00
76858;BME280;65830;0.000;0.000;2024-03-02T08:43:58;99425.59;;;8.77;100.00
76858;BME280;65830;0.000;0.000;2024-03-02T08:46:23;99428.44;;;8.64;100.00
76858;BME280;65830;0.000;0.000;2024-03-02T08:48:49;99416.03;;;8.54;100.00
76858;BME280;65830;0.000;0.000;2024-03-02T08:51:15;99425.31;;;8.80;100.00
76858;BME280;65830;0.000;0.000;2024-03-02T08:53:41;99422.63;;;8.70;100.00
76858;BME280;65830;0.000;0.000;2024-03-02T08:56:07;99410.78;;;8.64;100.00
76858;BME280;65830;0.000;0.000;2024-03-02T08:58:33;99411.66;;;8.74;100.00
76858;BME280;65830;0.000;0.000;2024-03-02T09:00:58;99418.94;;;8.82;100.00
76858;BME280;65830;0.000;0.000;2024-03-02T09:03:24;99410.84;;;8.84;100.00
76858;BME280;65830;0.000;0.000;2024-03-02T09:05:49;99414.53;;;9.02;100.00
76858;BME280;65830;0.000;0.000;2024-03-02T09:08:15;99427.16;;;8.89;100.00
76858;BME280;65830;0.000;0.000;2024-03-02T09:10:40;99430.97;;;8.96;100.00
76858;BME280;65830;0.000;0.000;2024-03-02T09:13:06;99419.69;;;8.63;100.00
76858;BME280;65830;0.000;0.000;2024-03-02T09:15:31;99418.69;;;8.54;100.00
76858;BME280;65830;0.000;0.000;2024-03-02T09:17:57;99432.25;;;8.71;100.00
76858;BME280;65830;0.000;0.000;2024-03-02T09:20:22;99433.25;;;8.80;100.00
76858;BME280;65830;0.000;0.000;2024-03-02T09:22:48;99433.56;;;8.86;100.00
76858;BME280;65830;0.000;0.000;2024-03-02T09:25:14;99433.88;;;8.93;100.00
76858;BME280;65830;0.000;0.000;2024-03-02T09:27:41;99430.50;;;8.91;100.00
76858;BME280;65830;0.000;0.000;2024-03-02T09:30:10;99438.22;;;9.04;100.00
76858;BME280;65830;0.000;0.000;2024-03-02T09:32:36;99429.28;;;8.95;100.00
76858;BME280;65830;0.000;0.000;2024-03-02T09:35:01;99426.91;;;8.92;100.00
76858;BME280;65830;0.000;0.000;2024-03-02T09:37:27;99432.13;;;9.13;100.00
76858;BME280;65830;0.000;0.000;2024-03-02T09:39:54;99423.72;;;8.98;100.00
76858;BME280;65830;0.000;0.000;2024-03-02T09:42:20;99424.41;;;8.90;100.00
76858;BME280;65830;0.000;0.000;2024-03-02T09:44:45;99427.25;;;8.78;100.00
76858;BME280;65830;0.000;0.000;2024-03-02T09:47:12;99429.69;;;8.90;100.00
76858;BME280;65830;0.000;0.000;2024-03-02T09:49:38;99427.38;;;9.07;100.00
76858;BME280;65830;0.000;0.000;2024-03-02T09:52:05;99439.13;;;9.33;100.00
76858;BME280;65830;0.000;0.000;2024-03-02T09:54:30;99436.50;;;9.43;100.00
76858;BME280;65830;0.000;0.000;2024-03-02T09:56:56;99421.59;;;9.42;100.00
76858;BME280;65830;0.000;0.000;2024-03-02T09:59:21;99437.19;;;9.45;100.00
76858;BME280;65830;0.000;0.000;2024-03-02T10:04:25;99424.84;;;9.65;100.00
76858;BME280;65830;0.000;0.000;2024-03-02T10:06:50;99425.25;;;9.90;100.00
76858;BME280;65830;0.000;0.000;2024-03-02T10:09:28;99436.41;;;9.93;100.00
76858;BME280;65830;0.000;0.000;2024-03-02T10:12:03;99429.72;;;9.70;100.00
76858;BME280;65830;0.000;0.000;2024-03-02T10:14:29;99429.41;;;9.73;100.00
76858;BME280;65830;0.000;0.000;2024-03-02T10:16:54;99417.41;;;9.69;100.00
76858;BME280;65830;0.000;0.000;2024-03-02T10:19:26;99420.22;;;9.67;100.00
76858;BME280;65830;0.000;0.000;2024-03-02T10:21:53;99425.53;;;9.58;100.00
76858;BME280;65830;0.000;0.000;2024-03-02T10:24:20;99426.38;;;9.87;100.00
76858;BME280;65830;0.000;0.000;2024-03-02T10:26:46;99424.41;;;9.99;100.00
76858;BME280;65830;0.000;0.000;2024-03-02T10:29:11;99424.66;;;9.96;100.00
76858;BME280;65830;0.000;0.000;2024-03-02T10:31:38;99416.59;;;9.98;100.00
76858;BME280;65830;0.000;0.000;2024-03-02T10:34:03;99421.63;;;9.81;100.00
76858;BME280;65830;0.000;0.000;2024-03-02T10:36:29;99408.78;;;9.86;100.00
76858;BME280;65830;0.000;0.000;2024-03-02T10:38:56;99411.00;;;9.91;100.00
76858;BME280;65830;0.000;0.000;2024-03-02T10:41:26;99406.66;;;10.09;100.00
76858;BME280;65830;0.000;0.000;2024-03-02T10:43:55;99399.88;;;9.87;100.00
76858;BME280;65830;0.000;0.000;2024-03-02T10:46:27;99392.34;;;9.63;100.00
76858;BME280;65830;0.000;0.000;2024-03-02T10:48:55;99389.84;;;9.62;100.00
76858;BME280;65830;0.000;0.000;2024-03-02T10:51:20;99388.13;;;9.61;100.00
76858;BME280;65830;0.000;0.000;2024-03-02T10:53:46;99386.47;;;9.79;100.00
76858;BME280;65830;0.000;0.000;2024-03-02T10:56:11;99386.63;;;9.68;100.00
76858;BME280;65830;0.000;0.000;2024-03-02T10:58:41;99379.94;;;9.64;100.00
76858;BME280;65830;0.000;0.000;2024-03-02T11:01:07;99380.63;;;9.46;100.00
76858;BME280;65830;0.000;0.000;2024-03-02T11:03:35;99380.50;;;9.58;100.00
76858;BME280;65830;0.000;0.000;2024-03-02T11:06:01;99376.72;;;9.70;100.00
76858;BME280;65830;0.000;0.000;2024-03-02T11:08:31;99371.16;;;9.53;100.00
76858;BME280;65830;0.000;0.000;2024-03-02T11:10:59;99373.50;;;9.57;100.00
76858;BME280;65830;0.000;0.000;2024-03-02T11:13:32;99373.81;;;9.53;100.00
76858;BME280;65830;0.000;0.000;2024-03-02T11:16:44;99362.66;;;9.60;100.00
76858;BME280;65830;0.000;0.000;2024-03-02T11:18:44;99369.34;;;9.54;100.00
76858;BME280;65830;0.000;0.000;2024-03-02T11:21:10;99363.88;;;9.75;100.00
76858;BME280;65830;0.000;0.000;2024-03-02T11:23:35;99365.56;;;9.66;100.00
76858;BME280;65830;0.000;0.000;2024-03-02T11:26:19;99369.47;;;9.62;100.00
76858;BME280;65830;0.000;0.000;2024-03-02T11:28:46;99359.13;;;9.69;100.00
76858;BME280;65830;0.000;0.000;2024-03-02T11:31:11;99354.97;;;9.57;100.00
76858;BME280;65830;0.000;0.000;2024-03-02T11:33:37;99359.44;;;9.46;100.00
76858;BME280;65830;0.000;0.000;2024-03-02T11:36:02;99358.59;;;9.56;100.00
76858;BME280;65830;0.000;0.000;2024-03-02T11:38:29;99345.50;;;9.64;100.00
76858;BME280;65830;0.000;0.000;2024-03-02T11:40:55;99351.75;;;9.63;100.00
76858;BME280;65830;0.000;0.000;2024-03-02T11:43:21;99336.38;;;10.05;100.00
76858;BME280;65830;0.000;0.000;2024-03-02T11:45:46;99346.75;;;10.36;100.00
76858;BME280;65830;0.000;0.000;2024-03-02T11:48:15;99342.72;;;10.32;100.00
76858;BME280;65830;0.000;0.000;2024-03-02T11:50:47;99328.63;;;10.31;100.00
76858;BME280;65830;0.000;0.000;2024-03-02T11:53:14;99323.94;;;10.81;100.00
76858;BME280;65830;0.000;0.000;2024-03-02T11:55:39;99325.69;;;10.90;100.00
76858;BME280;65830;0.000;0.000;2024-03-02T11:58:12;99329.09;;;10.82;100.00
76858;BME280;65830;0.000;0.000;2024-03-02T12:00:38;99329.75;;;11.30;100.00
76858;BME280;65830;0.000;0.000;2024-03-02T12:03:04;99328.81;;;11.39;100.00
76858;BME280;65830;0.000;0.000;2024-03-02T12:05:30;99327.25;;;11.46;100.00
76858;BME280;65830;0.000;0.000;2024-03-02T12:07:56;99326.31;;;11.73;96.56
76858;BME280;65830;0.000;0.000;2024-03-02T12:10:22;99324.38;;;11.58;98.02
76858;BME280;65830;0.000;0.000;2024-03-02T12:12:47;99326.50;;;12.24;95.88
76858;BME280;65830;0.000;0.000;2024-03-02T12:15:13;99323.19;;;12.30;92.68
76858;BME280;65830;0.000;0.000;2024-03-02T12:17:38;99317.69;;;11.53;95.88
76858;BME280;65830;0.000;0.000;2024-03-02T12:20:05;99316.88;;;11.97;95.88
76858;BME280;65830;0.000;0.000;2024-03-02T12:22:30;99313.91;;;12.35;95.39
76858;BME280;65830;0.000;0.000;2024-03-02T12:24:56;99319.06;;;12.36;90.81
76858;BME280;65830;0.000;0.000;2024-03-02T12:27:21;99305.56;;;11.77;94.06
76858;BME280;65830;0.000;0.000;2024-03-02T12:29:47;99314.16;;;12.15;92.00
76858;BME280;65830;0.000;0.000;2024-03-02T12:32:13;99301.00;;;11.87;92.70
76858;BME280;65830;0.000;0.000;2024-03-02T12:34:39;99310.34;;;12.18;92.18
76858;BME280;65830;0.000;0.000;2024-03-02T12:37:05;99314.31;;;11.51;93.68
76858;BME280;65830;0.000;0.000;2024-03-02T12:39:30;99309.88;;;11.16;94.72
76858;BME280;65830;0.000;0.000;2024-03-02T12:41:58;99323.16;;;11.34;95.86
76858;BME280;65830;0.000;0.000;2024-03-02T12:44:23;99315.75;;;10.92;99.38
76858;BME280;65830;0.000;0.000;2024-03-02T12:46:49;99322.28;;;11.51;97.13
76858;BME280;65830;0.000;0.000;2024-03-02T12:49:15;99322.81;;;11.55;96.42
76858;BME280;65830;0.000;0.000;2024-03-02T12:51:46;99318.00;;;11.95;93.65
76858;BME280;65830;0.000;0.000;2024-03-02T12:54:17;99335.50;;;11.43;96.14
76858;BME280;65830;0.000;0.000;2024-03-02T12:56:42;99330.16;;;11.79;93.26
76858;BME280;65830;0.000;0.000;2024-03-02T12:59:17;99333.44;;;11.91;93.83
76858;BME280;65830;0.000;0.000;2024-03-02T13:01:50;99327.03;;;11.84;93.03
76858;BME280;65830;0.000;0.000;2024-03-02T13:04:15;99333.38;;;11.65;94.84
76858;BME280;65830;0.000;0.000;2024-03-02T13:06:41;99330.88;;;11.27;99.19
76858;BME280;65830;0.000;0.000;2024-03-02T13:09:06;99341.13;;;11.40;98.45